Seaside, California
Current Conditions -  °F | °C
As of 11:54 AM on Friday 31 Oct 2014 (Local Time) from KMRY Reporting Station
Overcast Overcast  
Wind Chill: 64°   Ceiling: 4700
Heat Index: 64°   Visibility: 9mi
Dew Point: 54°   Wind: 6mph
Humidity: 70%   Direction: 330°NNW
Pressure: 29.88"   Gusts: NA
Location:  36.6°N, 121.85°W
Report Text: KMRY 311854Z 33005KT 9SM OVC047 18/12 A2988 RMK AO2 SLP130 T01780122
Loading
Personal Weather Stations






























Interactive Weather Map
Tropical Storm Tracking
New forecast layout! Learn more

10-Day Weather Forecast

Advertisements
Track Severe Weather on mobile